createdAt,value
2023-03-26T00:00:06.947Z,6.40
2023-03-26T00:00:15.420Z,6.40
2023-03-26T00:00:25.913Z,6.40
2023-03-26T00:00:36.420Z,6.41
2023-03-26T00:00:46.927Z,6.43
2023-03-26T00:00:57.446Z,6.41
2023-03-26T00:01:07.939Z,6.41
2023-03-26T00:01:18.454Z,6.41
2023-03-26T00:01:28.957Z,6.43
2023-03-26T00:01:39.526Z,6.44
2023-03-26T00:01:50.075Z,6.44
2023-03-26T00:02:00.511Z,6.44
2023-03-26T00:02:11.022Z,6.44
2023-03-26T00:02:21.534Z,6.44
2023-03-26T00:02:32.059Z,6.46
2023-03-26T00:02:42.528Z,6.46
2023-03-26T00:02:53.138Z,6.46
2023-03-26T00:03:03.575Z,6.46
2023-03-26T00:03:14.117Z,6.46
2023-03-26T00:03:24.564Z,6.48
2023-03-26T00:03:35.043Z,6.48
2023-03-26T00:03:45.551Z,6.48
2023-03-26T00:03:56.069Z,6.49
2023-03-26T00:04:06.644Z,6.48
2023-03-26T00:04:17.076Z,6.48
2023-03-26T00:04:27.606Z,6.51
2023-03-26T00:04:38.104Z,6.51
2023-03-26T00:04:48.635Z,6.48
2023-03-26T00:04:59.107Z,6.49
2023-03-26T00:05:09.660Z,6.49
2023-03-26T00:05:20.173Z,6.52
2023-03-26T00:05:30.675Z,6.51
2023-03-26T00:05:41.182Z,6.51
2023-03-26T00:05:51.759Z,6.51
2023-03-26T00:06:02.186Z,6.51
2023-03-26T00:06:12.664Z,6.49
2023-03-26T00:06:23.172Z,6.49
2023-03-26T00:06:33.666Z,6.51
2023-03-26T00:06:44.171Z,6.51
2023-03-26T00:06:54.688Z,6.51
2023-03-26T00:07:05.188Z,6.51
2023-03-26T00:07:15.716Z,6.49
2023-03-26T00:07:26.200Z,6.51
2023-03-26T00:07:36.713Z,6.51
2023-03-26T00:07:47.213Z,6.52
2023-03-26T00:07:57.720Z,6.51
2023-03-26T00:08:08.240Z,6.51
2023-03-26T00:08:18.762Z,6.51
2023-03-26T00:08:29.241Z,6.51
2023-03-26T00:08:39.790Z,6.52
2023-03-26T00:08:50.265Z,6.52
2023-03-26T00:09:00.901Z,6.51
2023-03-26T00:09:11.276Z,6.52
2023-03-26T00:09:21.784Z,6.52
2023-03-26T00:09:32.293Z,6.52
2023-03-26T00:09:42.789Z,6.55
2023-03-26T00:09:53.320Z,6.54
2023-03-26T00:10:03.804Z,6.51
2023-03-26T00:10:14.323Z,6.54
2023-03-26T00:10:24.822Z,6.54
2023-03-26T00:10:35.333Z,6.52
2023-03-26T00:10:45.840Z,6.52
2023-03-26T00:10:56.346Z,6.54
2023-03-26T00:11:06.841Z,6.55
2023-03-26T00:11:17.356Z,6.52
2023-03-26T00:11:27.898Z,6.54
2023-03-26T00:11:38.371Z,6.55
2023-03-26T00:11:48.885Z,6.54
2023-03-26T00:11:59.396Z,6.56
2023-03-26T00:12:09.894Z,6.54
2023-03-26T00:12:20.406Z,6.54
2023-03-26T00:12:30.910Z,6.55
2023-03-26T00:12:41.430Z,6.55
2023-03-26T00:12:51.932Z,6.55
2023-03-26T00:13:02.438Z,6.54
2023-03-26T00:13:12.945Z,6.54
2023-03-26T00:13:23.449Z,6.54
2023-03-26T00:13:33.963Z,6.55
2023-03-26T00:13:44.474Z,6.55
2023-03-26T00:13:54.976Z,6.54
2023-03-26T00:14:05.838Z,6.55
2023-03-26T00:14:15.997Z,6.55
2023-03-26T00:14:26.499Z,6.55
2023-03-26T00:14:36.999Z,6.56
2023-03-26T00:14:47.509Z,6.55
2023-03-26T00:14:58.026Z,6.58
2023-03-26T00:15:08.532Z,6.56
2023-03-26T00:15:19.045Z,6.55
2023-03-26T00:15:29.550Z,6.55
2023-03-26T00:15:40.060Z,6.56
2023-03-26T00:15:50.561Z,6.56
2023-03-26T00:16:01.074Z,6.58
2023-03-26T00:16:11.635Z,6.58
2023-03-26T00:16:22.110Z,6.56
2023-03-26T00:16:32.633Z,6.58
2023-03-26T00:16:43.190Z,6.58
2023-03-26T00:16:53.714Z,6.58
2023-03-26T00:17:04.118Z,6.58
2023-03-26T00:17:14.634Z,6.56
2023-03-26T00:17:25.203Z,6.58
2023-03-26T00:17:35.677Z,6.59
2023-03-26T00:17:46.158Z,6.58
2023-03-26T00:17:56.734Z,6.59
2023-03-26T00:18:07.214Z,6.58
2023-03-26T00:18:17.676Z,6.61
2023-03-26T00:18:28.180Z,6.59
2023-03-26T00:18:38.699Z,6.59
2023-03-26T00:18:49.203Z,6.58
2023-03-26T00:18:59.728Z,6.61
2023-03-26T00:19:10.216Z,6.59
2023-03-26T00:19:20.727Z,6.61
2023-03-26T00:19:31.233Z,6.59
2023-03-26T00:19:41.741Z,6.59
2023-03-26T00:19:52.250Z,6.62
2023-03-26T00:20:02.768Z,6.58
2023-03-26T00:20:13.282Z,6.61
2023-03-26T00:20:23.780Z,6.61
2023-03-26T00:20:34.297Z,6.61
2023-03-26T00:20:44.805Z,6.62
2023-03-26T00:20:55.318Z,6.61
2023-03-26T00:21:05.816Z,6.62
2023-03-26T00:21:16.336Z,6.62
2023-03-26T00:21:26.847Z,6.62
2023-03-26T00:21:37.340Z,6.62
2023-03-26T00:21:47.844Z,6.62
2023-03-26T00:21:58.354Z,6.62
2023-03-26T00:22:08.932Z,6.62
2023-03-26T00:22:19.366Z,6.64
2023-03-26T00:22:29.878Z,6.62
2023-03-26T00:22:40.417Z,6.61
2023-03-26T00:22:50.891Z,6.62
2023-03-26T00:23:01.393Z,6.62
2023-03-26T00:23:11.909Z,6.64
2023-03-26T00:23:22.539Z,6.64
2023-03-26T00:23:32.934Z,6.62
2023-03-26T00:23:43.464Z,6.62
2023-03-26T00:23:53.942Z,6.62
2023-03-26T00:24:04.597Z,6.66
2023-03-26T00:24:15.282Z,6.64
2023-03-26T00:24:25.459Z,6.64
2023-03-26T00:24:35.968Z,6.66
2023-03-26T00:24:46.475Z,6.64
2023-03-26T00:24:57.013Z,6.67
2023-03-26T00:25:07.497Z,6.64
2023-03-26T00:25:18.005Z,6.64
2023-03-26T00:25:28.502Z,6.66
2023-03-26T00:25:39.012Z,6.64
2023-03-26T00:25:49.586Z,6.66
2023-03-26T00:26:00.032Z,6.66
2023-03-26T00:26:10.556Z,6.66
2023-03-26T00:26:21.058Z,6.66
2023-03-26T00:26:31.553Z,6.66
2023-03-26T00:26:42.068Z,6.64
2023-03-26T00:26:52.566Z,6.64
2023-03-26T00:27:03.250Z,6.62
2023-03-26T00:27:13.583Z,6.66
2023-03-26T00:27:24.089Z,6.64
2023-03-26T00:27:34.603Z,6.66
2023-03-26T00:27:45.123Z,6.64
2023-03-26T00:27:55.626Z,6.64
2023-03-26T00:28:06.134Z,6.62
2023-03-26T00:28:16.622Z,6.64
2023-03-26T00:28:27.151Z,6.66
2023-03-26T00:28:37.637Z,6.64
2023-03-26T00:28:48.151Z,6.64
2023-03-26T00:28:58.657Z,6.67
2023-03-26T00:29:09.160Z,6.67
2023-03-26T00:29:19.665Z,6.66
2023-03-26T00:29:30.181Z,6.66
2023-03-26T00:29:40.687Z,6.66
2023-03-26T00:29:51.197Z,6.64
2023-03-26T00:30:01.714Z,6.66
2023-03-26T00:30:12.223Z,6.66
2023-03-26T00:30:22.731Z,6.66
2023-03-26T00:30:33.267Z,6.66
2023-03-26T00:30:43.862Z,6.64
2023-03-26T00:30:54.284Z,6.64
2023-03-26T00:31:04.818Z,6.66
2023-03-26T00:31:15.303Z,6.67
2023-03-26T00:31:25.771Z,6.66
2023-03-26T00:31:36.335Z,6.64
2023-03-26T00:31:46.858Z,6.66
2023-03-26T00:31:57.299Z,6.66
2023-03-26T00:32:07.807Z,6.66
2023-03-26T00:32:18.333Z,6.66
2023-03-26T00:32:28.864Z,6.66
2023-03-26T00:32:39.350Z,6.66
2023-03-26T00:32:53.508Z,6.67
2023-03-26T00:33:00.420Z,6.66
2023-03-26T00:33:10.892Z,6.66
2023-03-26T00:33:21.399Z,6.64
2023-03-26T00:33:31.887Z,6.67
2023-03-26T00:33:42.411Z,6.66
2023-03-26T00:33:52.875Z,6.67
2023-03-26T00:34:03.385Z,6.67
2023-03-26T00:34:13.888Z,6.67
2023-03-26T00:34:24.403Z,6.67
2023-03-26T00:34:34.919Z,6.67
2023-03-26T00:34:45.415Z,6.67
2023-03-26T00:34:55.920Z,6.67
2023-03-26T00:35:06.439Z,6.69
2023-03-26T00:35:16.939Z,6.67
2023-03-26T00:35:27.456Z,6.69
2023-03-26T00:35:38.022Z,6.69
2023-03-26T00:35:48.532Z,6.69
2023-03-26T00:35:59.213Z,6.69
2023-03-26T00:36:09.739Z,6.67
2023-03-26T00:36:20.092Z,6.69
2023-03-26T00:36:30.494Z,6.70
2023-03-26T00:36:41.002Z,6.71
2023-03-26T00:36:51.511Z,6.70
2023-03-26T00:37:02.022Z,6.71
2023-03-26T00:37:12.558Z,6.70
2023-03-26T00:37:23.028Z,6.70
2023-03-26T00:37:33.529Z,6.70
2023-03-26T00:37:44.040Z,6.71
2023-03-26T00:37:54.545Z,6.70
2023-03-26T00:38:05.062Z,6.71
2023-03-26T00:38:15.579Z,6.74
2023-03-26T00:38:26.079Z,6.71
2023-03-26T00:38:36.929Z,6.69
2023-03-26T00:38:47.145Z,6.71
2023-03-26T00:38:57.591Z,6.73
2023-03-26T00:39:08.094Z,6.73
2023-03-26T00:39:18.599Z,6.73
2023-03-26T00:39:29.132Z,6.73
2023-03-26T00:39:39.616Z,6.73
2023-03-26T00:39:50.113Z,6.74
2023-03-26T00:40:00.777Z,6.74
2023-03-26T00:40:11.124Z,6.76
2023-03-26T00:40:21.642Z,6.74
2023-03-26T00:40:32.144Z,6.74
2023-03-26T00:40:42.637Z,6.76
2023-03-26T00:40:53.154Z,6.76
2023-03-26T00:41:03.649Z,6.76
2023-03-26T00:41:14.161Z,6.77
2023-03-26T00:41:24.677Z,6.77
2023-03-26T00:41:35.177Z,6.77
2023-03-26T00:41:45.694Z,6.77
2023-03-26T00:41:56.191Z,6.76
2023-03-26T00:42:06.710Z,6.79
2023-03-26T00:42:17.220Z,6.77
2023-03-26T00:42:27.738Z,6.79
2023-03-26T00:42:38.228Z,6.79
2023-03-26T00:42:48.737Z,6.77
2023-03-26T00:42:59.241Z,6.77
2023-03-26T00:43:09.749Z,6.79
2023-03-26T00:43:20.259Z,6.77
2023-03-26T00:43:30.773Z,6.79
2023-03-26T00:43:41.311Z,6.79
2023-03-26T00:43:51.786Z,6.79
2023-03-26T00:44:02.303Z,6.79
2023-03-26T00:44:12.791Z,6.80
2023-03-26T00:44:23.309Z,6.80
2023-03-26T00:44:33.803Z,6.80
2023-03-26T00:44:44.308Z,6.80
2023-03-26T00:44:54.816Z,6.80
2023-03-26T00:45:05.319Z,6.81
2023-03-26T00:45:15.858Z,6.81
2023-03-26T00:45:26.336Z,6.80
2023-03-26T00:45:36.846Z,6.81
2023-03-26T00:45:47.399Z,6.84
2023-03-26T00:45:58.126Z,6.81
2023-03-26T00:46:08.377Z,6.84
2023-03-26T00:46:18.983Z,6.85
2023-03-26T00:46:29.421Z,6.87
2023-03-26T00:46:39.981Z,6.85
2023-03-26T00:46:50.394Z,6.87
2023-03-26T00:47:00.904Z,6.87
2023-03-26T00:47:11.405Z,6.87
2023-03-26T00:47:21.910Z,6.87
2023-03-26T00:47:32.443Z,6.87
2023-03-26T00:47:42.989Z,6.88
2023-03-26T00:47:53.456Z,6.87
2023-03-26T00:48:03.980Z,6.87
2023-03-26T00:48:14.443Z,6.87
2023-03-26T00:48:31.600Z,6.88
2023-03-26T00:48:45.088Z,6.87
2023-03-26T00:48:47.018Z,6.85
2023-03-26T00:48:56.477Z,6.85
2023-03-26T00:49:06.999Z,6.88
2023-03-26T00:49:17.486Z,6.87
2023-03-26T00:49:28.005Z,6.85
2023-03-26T00:49:38.505Z,6.87
2023-03-26T00:49:49.012Z,6.87
2023-03-26T00:49:59.527Z,6.87
2023-03-26T00:50:10.040Z,6.87
2023-03-26T00:50:20.544Z,6.88
2023-03-26T00:50:31.074Z,6.87
2023-03-26T00:50:41.634Z,6.85
2023-03-26T00:50:52.065Z,6.85
2023-03-26T00:51:02.579Z,6.85
2023-03-26T00:51:13.085Z,6.87
2023-03-26T00:51:23.595Z,6.85
2023-03-26T00:51:34.216Z,6.85
2023-03-26T00:51:44.611Z,6.87
2023-03-26T00:51:55.124Z,6.85
2023-03-26T00:52:05.622Z,6.85
2023-03-26T00:52:16.138Z,6.88
2023-03-26T00:52:26.653Z,6.85
2023-03-26T00:52:37.154Z,6.87
2023-03-26T00:52:47.684Z,6.84
2023-03-26T00:52:58.187Z,6.87
2023-03-26T00:53:08.682Z,6.87
2023-03-26T00:53:19.192Z,6.87
2023-03-26T00:53:29.699Z,6.87
2023-03-26T00:53:40.208Z,6.87
2023-03-26T00:53:50.737Z,6.87
2023-03-26T00:54:01.225Z,6.87
2023-03-26T00:54:11.736Z,6.87
2023-03-26T00:54:22.255Z,6.85
2023-03-26T00:54:32.753Z,6.85
2023-03-26T00:54:43.268Z,6.87
2023-03-26T00:54:53.795Z,6.85
2023-03-26T00:55:04.281Z,6.85
2023-03-26T00:55:14.788Z,6.85
2023-03-26T00:55:25.297Z,6.85
2023-03-26T00:55:35.807Z,6.85
2023-03-26T00:55:46.308Z,6.87
2023-03-26T00:55:56.813Z,6.85
2023-03-26T00:56:07.325Z,6.85
2023-03-26T00:56:17.840Z,6.85
2023-03-26T00:56:28.340Z,6.88
2023-03-26T00:56:39.014Z,6.87
2023-03-26T00:56:49.391Z,6.87
2023-03-26T00:56:59.905Z,6.87
2023-03-26T00:57:10.526Z,6.85
2023-03-26T00:57:34.547Z,6.87
2023-03-26T00:57:35.835Z,6.85
2023-03-26T00:57:41.890Z,6.87
2023-03-26T00:57:52.400Z,6.85
2023-03-26T00:58:02.906Z,6.85
2023-03-26T00:58:13.435Z,6.87
2023-03-26T00:58:23.918Z,6.85
2023-03-26T00:58:34.425Z,6.85
2023-03-26T00:58:44.946Z,6.87
2023-03-26T00:58:55.443Z,6.87
2023-03-26T00:59:05.958Z,6.87
2023-03-26T00:59:16.454Z,6.85
2023-03-26T00:59:26.963Z,6.88
2023-03-26T00:59:37.472Z,6.88
2023-03-26T00:59:47.986Z,6.88
2023-03-26T00:59:58.479Z,6.87
2023-03-26T01:00:08.989Z,6.88
2023-03-26T01:00:19.488Z,6.88
2023-03-26T01:00:30.006Z,6.88
2023-03-26T01:00:40.529Z,6.89
2023-03-26T01:00:51.030Z,6.88
2023-03-26T01:01:01.572Z,6.91
2023-03-26T01:01:12.043Z,6.91
2023-03-26T01:01:22.565Z,6.89
2023-03-26T01:01:33.073Z,6.88
2023-03-26T01:01:43.632Z,6.89
2023-03-26T01:01:54.110Z,6.88
2023-03-26T01:02:04.578Z,6.88
2023-03-26T01:02:15.108Z,6.91
2023-03-26T01:02:25.623Z,6.89
2023-03-26T01:02:36.162Z,6.91
2023-03-26T01:02:46.626Z,6.89
2023-03-26T01:02:57.265Z,6.89
2023-03-26T01:03:07.708Z,6.88
2023-03-26T01:03:27.636Z,6.89
2023-03-26T01:03:29.655Z,6.89
2023-03-26T01:03:39.248Z,6.91
2023-03-26T01:04:04.908Z,6.91
2023-03-26T01:04:08.758Z,6.89
2023-03-26T01:04:11.717Z,6.92
2023-03-26T01:04:21.314Z,6.89
2023-03-26T01:04:32.270Z,6.91
2023-03-26T01:04:42.252Z,6.88
2023-03-26T01:04:52.716Z,6.91
2023-03-26T01:05:03.237Z,6.88
2023-03-26T01:05:13.705Z,6.89
2023-03-26T01:05:24.248Z,6.89
2023-03-26T01:05:34.707Z,6.88
2023-03-26T01:05:45.221Z,6.91
2023-03-26T01:05:55.865Z,6.89
2023-03-26T01:06:06.228Z,6.89
2023-03-26T01:06:16.736Z,6.88
2023-03-26T01:06:27.252Z,6.89
2023-03-26T01:06:37.810Z,6.88
2023-03-26T01:06:48.261Z,6.89
2023-03-26T01:06:58.784Z,6.91
2023-03-26T01:07:09.274Z,6.91
2023-03-26T01:07:19.781Z,6.91
2023-03-26T01:07:30.316Z,6.91
2023-03-26T01:07:40.815Z,6.91
2023-03-26T01:07:51.305Z,6.91
2023-03-26T01:08:01.812Z,6.91
2023-03-26T01:08:12.321Z,6.92
2023-03-26T01:08:22.831Z,6.94
2023-03-26T01:08:33.344Z,6.94
2023-03-26T01:08:43.846Z,6.92
2023-03-26T01:08:54.370Z,6.92
2023-03-26T01:09:04.872Z,6.94
2023-03-26T01:09:15.365Z,6.92
2023-03-26T01:09:25.866Z,6.95
2023-03-26T01:09:36.373Z,6.94
2023-03-26T01:09:46.879Z,6.94
2023-03-26T01:09:57.388Z,6.94
2023-03-26T01:10:07.898Z,6.94
2023-03-26T01:10:18.418Z,6.94
2023-03-26T01:10:28.926Z,6.94
2023-03-26T01:10:39.442Z,6.94
2023-03-26T01:10:49.940Z,6.94
2023-03-26T01:11:00.445Z,6.92
2023-03-26T01:11:10.942Z,6.94
2023-03-26T01:11:21.449Z,6.94
2023-03-26T01:11:31.979Z,6.92
2023-03-26T01:11:42.465Z,6.94
2023-03-26T01:11:52.978Z,6.94
2023-03-26T01:12:03.483Z,6.94
2023-03-26T01:12:13.983Z,6.92
2023-03-26T01:12:24.480Z,6.94
2023-03-26T01:12:35.005Z,6.94
2023-03-26T01:12:45.500Z,6.92
2023-03-26T01:12:56.021Z,6.89
2023-03-26T01:13:06.524Z,6.94
2023-03-26T01:13:17.029Z,6.92
2023-03-26T01:13:27.525Z,6.92
2023-03-26T01:13:38.039Z,6.92
2023-03-26T01:13:48.543Z,6.92
2023-03-26T01:13:59.047Z,6.89
2023-03-26T01:14:09.549Z,6.91
2023-03-26T01:14:20.065Z,6.91
2023-03-26T01:14:30.578Z,6.91
2023-03-26T01:14:41.071Z,6.89
2023-03-26T01:14:52.036Z,6.89
2023-03-26T01:15:02.101Z,6.89
2023-03-26T01:15:12.588Z,6.89
2023-03-26T01:15:23.119Z,6.91
2023-03-26T01:15:33.645Z,6.88
2023-03-26T01:15:44.176Z,6.89
2023-03-26T01:15:54.849Z,6.89
2023-03-26T01:16:05.167Z,6.91
2023-03-26T01:16:15.656Z,6.89
2023-03-26T01:16:26.257Z,6.89
2023-03-26T01:16:36.645Z,6.89
2023-03-26T01:16:47.181Z,6.89
2023-03-26T01:16:57.675Z,6.89
2023-03-26T01:17:08.169Z,6.89
2023-03-26T01:17:18.670Z,6.92
2023-03-26T01:17:29.187Z,6.91
2023-03-26T01:17:39.693Z,6.89
2023-03-26T01:17:50.204Z,6.89
2023-03-26T01:18:00.729Z,6.91
2023-03-26T01:18:11.207Z,6.91
2023-03-26T01:18:21.796Z,6.92
2023-03-26T01:18:32.219Z,6.91
2023-03-26T01:18:42.734Z,6.91
2023-03-26T01:18:53.238Z,6.91
2023-03-26T01:19:03.736Z,6.91
2023-03-26T01:19:14.246Z,6.92
2023-03-26T01:19:24.758Z,6.89
2023-03-26T01:19:35.259Z,6.89
2023-03-26T01:19:45.766Z,6.91
2023-03-26T01:19:56.299Z,6.92
2023-03-26T01:20:06.793Z,6.91
2023-03-26T01:20:17.303Z,6.92
2023-03-26T01:20:27.803Z,6.92
2023-03-26T01:20:38.310Z,6.91
2023-03-26T01:20:48.815Z,6.92
2023-03-26T01:20:59.324Z,6.92
2023-03-26T01:21:09.868Z,6.92
2023-03-26T01:21:20.366Z,6.92
2023-03-26T01:21:30.862Z,6.91
2023-03-26T01:21:41.360Z,6.92
2023-03-26T01:21:51.874Z,6.92
2023-03-26T01:22:02.379Z,6.94
2023-03-26T01:22:12.888Z,6.94
2023-03-26T01:22:23.391Z,6.92
2023-03-26T01:22:33.905Z,6.92
2023-03-26T01:22:44.421Z,6.91
2023-03-26T01:22:54.924Z,6.92
2023-03-26T01:23:05.473Z,6.94
2023-03-26T01:23:15.971Z,6.92
2023-03-26T01:23:26.455Z,6.91
2023-03-26T01:23:36.972Z,6.92
2023-03-26T01:23:47.469Z,6.92
2023-03-26T01:23:58.002Z,6.92
2023-03-26T01:24:08.495Z,6.92
2023-03-26T01:24:18.991Z,6.94
2023-03-26T01:24:29.510Z,6.94
2023-03-26T01:24:40.017Z,6.94
2023-03-26T01:24:50.528Z,6.92
2023-03-26T01:25:01.040Z,6.95
2023-03-26T01:25:11.540Z,6.92
2023-03-26T01:25:22.050Z,6.95
2023-03-26T01:25:32.556Z,6.95
2023-03-26T01:25:43.064Z,6.94
2023-03-26T01:25:53.826Z,6.94
2023-03-26T01:26:04.089Z,6.94
2023-03-26T01:26:14.589Z,6.94
2023-03-26T01:26:25.118Z,6.94
2023-03-26T01:26:35.613Z,6.92
2023-03-26T01:26:46.112Z,6.92
2023-03-26T01:26:56.674Z,6.92
2023-03-26T01:27:07.191Z,6.94
2023-03-26T01:27:17.670Z,6.94
2023-03-26T01:27:28.161Z,6.92
2023-03-26T01:27:38.672Z,6.94
2023-03-26T01:27:49.173Z,6.92
2023-03-26T01:27:59.671Z,6.94
2023-03-26T01:28:10.185Z,6.94
2023-03-26T01:28:20.687Z,6.95
2023-03-26T01:28:31.193Z,6.95
2023-03-26T01:28:41.708Z,6.94
2023-03-26T01:28:52.216Z,6.95
2023-03-26T01:29:02.728Z,6.94
2023-03-26T01:29:13.227Z,6.97
2023-03-26T01:29:23.733Z,6.95
2023-03-26T01:29:34.236Z,6.97
2023-03-26T01:29:44.778Z,6.95
2023-03-26T01:29:55.251Z,6.98
2023-03-26T01:30:05.770Z,6.97
2023-03-26T01:30:16.266Z,6.97
2023-03-26T01:30:26.786Z,6.97
2023-03-26T01:30:37.306Z,6.95
2023-03-26T01:30:47.789Z,6.95
2023-03-26T01:30:58.298Z,6.97
2023-03-26T01:31:08.807Z,6.97
2023-03-26T01:31:19.318Z,6.95
2023-03-26T01:31:29.855Z,6.97
2023-03-26T01:31:40.324Z,6.95
2023-03-26T01:31:50.834Z,6.97
2023-03-26T01:32:01.336Z,6.97
2023-03-26T01:32:11.926Z,6.97
2023-03-26T01:32:22.444Z,6.97
2023-03-26T01:32:32.961Z,6.95
2023-03-26T01:32:43.432Z,6.97
2023-03-26T01:32:53.984Z,6.95
2023-03-26T01:33:04.431Z,6.97
2023-03-26T01:33:14.956Z,6.97
2023-03-26T01:33:25.474Z,6.97
2023-03-26T01:33:35.974Z,6.95
2023-03-26T01:33:46.508Z,6.95
2023-03-26T01:33:56.915Z,6.97
2023-03-26T01:34:07.418Z,6.95
2023-03-26T01:34:17.931Z,6.95
2023-03-26T01:34:28.425Z,6.94
2023-03-26T01:34:38.943Z,6.94
2023-03-26T01:34:49.446Z,6.95
2023-03-26T01:34:59.982Z,6.92
2023-03-26T01:35:10.450Z,6.94
2023-03-26T01:35:20.987Z,6.94
2023-03-26T01:35:31.518Z,6.92
2023-03-26T01:35:42.063Z,6.94
2023-03-26T01:35:52.750Z,6.94
2023-03-26T01:36:03.055Z,6.94
2023-03-26T01:36:13.505Z,6.94
2023-03-26T01:36:24.011Z,6.94
2023-03-26T01:36:34.502Z,6.92
2023-03-26T01:36:45.027Z,6.94
2023-03-26T01:36:55.517Z,6.95
2023-03-26T01:37:06.035Z,6.94
2023-03-26T01:37:16.551Z,6.94
2023-03-26T01:37:27.036Z,6.94
2023-03-26T01:37:37.592Z,6.92
2023-03-26T01:37:48.057Z,6.94
2023-03-26T01:37:58.594Z,6.92
2023-03-26T01:38:09.063Z,6.92
2023-03-26T01:38:19.591Z,6.94
2023-03-26T01:38:30.071Z,6.94
2023-03-26T01:38:40.581Z,6.94
2023-03-26T01:38:51.087Z,6.95
2023-03-26T01:39:01.619Z,6.94
2023-03-26T01:39:12.105Z,6.95
2023-03-26T01:39:22.607Z,6.95
2023-03-26T01:39:33.114Z,6.95
2023-03-26T01:39:43.615Z,6.97
2023-03-26T01:39:54.126Z,6.95
2023-03-26T01:40:04.627Z,6.95
2023-03-26T01:40:15.133Z,6.97
2023-03-26T01:40:25.638Z,6.97
2023-03-26T01:40:36.141Z,6.95
2023-03-26T01:40:46.727Z,6.95
2023-03-26T01:40:57.158Z,6.95
2023-03-26T01:41:07.659Z,6.95
2023-03-26T01:41:18.176Z,6.97
2023-03-26T01:41:28.672Z,6.95
2023-03-26T01:41:39.185Z,6.98
2023-03-26T01:41:49.688Z,6.97
2023-03-26T01:42:00.210Z,6.97
2023-03-26T01:42:10.713Z,6.97
2023-03-26T01:42:21.241Z,6.98
2023-03-26T01:42:31.717Z,6.98
2023-03-26T01:42:42.244Z,6.98
2023-03-26T01:42:52.736Z,6.97
2023-03-26T01:43:03.264Z,6.97
2023-03-26T01:43:13.767Z,6.97
2023-03-26T01:43:24.307Z,6.98
2023-03-26T01:43:34.754Z,6.95
2023-03-26T01:43:45.265Z,6.98
2023-03-26T01:43:55.769Z,6.98
2023-03-26T01:44:06.295Z,6.97
2023-03-26T01:44:16.791Z,6.97
2023-03-26T01:44:27.302Z,6.97
2023-03-26T01:44:37.806Z,6.97
2023-03-26T01:44:48.326Z,6.97
2023-03-26T01:44:58.821Z,6.98
2023-03-26T01:45:09.331Z,6.98
2023-03-26T01:45:19.832Z,6.98
2023-03-26T01:45:30.354Z,6.98
2023-03-26T01:45:40.845Z,6.97
2023-03-26T01:45:51.385Z,6.97
2023-03-26T01:46:01.872Z,6.97
2023-03-26T01:46:12.401Z,6.97
2023-03-26T01:46:22.910Z,6.97
2023-03-26T01:46:33.420Z,6.98
2023-03-26T01:46:43.990Z,6.99
2023-03-26T01:46:54.426Z,6.98
2023-03-26T01:47:04.902Z,6.98
2023-03-26T01:47:15.410Z,6.99
2023-03-26T01:47:26.005Z,6.99
2023-03-26T01:47:36.430Z,6.99
2023-03-26T01:47:46.971Z,6.98
2023-03-26T01:47:57.494Z,6.98
2023-03-26T01:48:07.954Z,6.99
2023-03-26T01:48:18.467Z,6.98
2023-03-26T01:48:28.992Z,6.97
2023-03-26T01:48:39.524Z,6.98
2023-03-26T01:48:49.981Z,6.97
2023-03-26T01:49:00.499Z,6.98
2023-03-26T01:49:11.006Z,6.97
2023-03-26T01:49:21.513Z,6.98
2023-03-26T01:49:32.018Z,6.98
2023-03-26T01:49:42.539Z,6.98
2023-03-26T01:49:53.034Z,6.99
2023-03-26T01:50:03.577Z,6.99
2023-03-26T01:50:14.056Z,6.99
2023-03-26T01:50:24.563Z,7.02
2023-03-26T01:50:35.071Z,6.99
2023-03-26T01:50:45.580Z,7.02
2023-03-26T01:50:56.083Z,6.99
2023-03-26T01:51:06.590Z,6.98
2023-03-26T01:51:17.104Z,6.98
2023-03-26T01:51:27.616Z,6.99
2023-03-26T01:51:38.109Z,6.99
2023-03-26T01:51:48.626Z,6.98
2023-03-26T01:51:59.150Z,6.99
2023-03-26T01:52:09.632Z,6.98
2023-03-26T01:52:20.133Z,6.99
2023-03-26T01:52:30.649Z,6.98
2023-03-26T01:52:41.178Z,6.97
2023-03-26T01:52:51.658Z,6.98
2023-03-26T01:53:02.165Z,6.98
2023-03-26T01:53:12.725Z,6.99
2023-03-26T01:53:23.197Z,6.97
2023-03-26T01:53:33.694Z,6.95
2023-03-26T01:53:44.207Z,6.97
2023-03-26T01:53:54.715Z,6.97
2023-03-26T01:54:05.231Z,6.97
2023-03-26T01:54:15.726Z,6.97
2023-03-26T01:54:26.227Z,6.95
2023-03-26T01:54:36.748Z,6.98
2023-03-26T01:54:47.254Z,6.97
2023-03-26T01:54:57.747Z,6.97
2023-03-26T01:55:08.259Z,6.98
2023-03-26T01:55:18.762Z,6.97
2023-03-26T01:55:29.278Z,6.95
2023-03-26T01:55:39.779Z,6.97
2023-03-26T01:55:50.287Z,6.97
2023-03-26T01:56:00.789Z,6.95
2023-03-26T01:56:11.303Z,6.97
2023-03-26T01:56:21.840Z,6.98
2023-03-26T01:56:32.332Z,6.98
2023-03-26T01:56:42.823Z,6.97
2023-03-26T01:56:53.375Z,6.98
2023-03-26T01:57:03.847Z,6.99
2023-03-26T01:57:14.375Z,6.98
2023-03-26T01:57:24.847Z,6.98
2023-03-26T01:57:35.356Z,6.97
2023-03-26T01:57:45.867Z,6.98
2023-03-26T01:57:56.371Z,6.98
2023-03-26T01:58:06.885Z,6.99
2023-03-26T01:58:17.407Z,6.98
2023-03-26T01:58:27.898Z,6.99
2023-03-26T01:58:38.395Z,6.98
2023-03-26T01:58:48.900Z,6.99
2023-03-26T01:58:59.445Z,6.99
2023-03-26T01:59:09.917Z,6.99
2023-03-26T01:59:20.435Z,6.98
2023-03-26T01:59:30.926Z,6.97
2023-03-26T01:59:41.439Z,6.98
2023-03-26T01:59:51.960Z,6.97
2023-03-26T02:00:02.461Z,6.97
2023-03-26T02:00:12.963Z,6.97
2023-03-26T02:00:23.473Z,6.97
2023-03-26T02:00:33.984Z,6.98
2023-03-26T02:00:44.494Z,6.97
2023-03-26T02:00:54.992Z,6.97
2023-03-26T02:01:05.513Z,6.98
2023-03-26T02:01:16.042Z,6.99
2023-03-26T02:01:26.541Z,6.98
2023-03-26T02:01:37.082Z,6.98
2023-03-26T02:01:47.604Z,6.99
2023-03-26T02:01:58.123Z,6.99
2023-03-26T02:02:08.653Z,6.99
2023-03-26T02:02:19.158Z,6.99
2023-03-26T02:02:29.824Z,6.98
2023-03-26T02:02:40.198Z,6.98
2023-03-26T02:02:50.805Z,6.99
2023-03-26T02:03:01.164Z,6.99
2023-03-26T02:03:11.653Z,6.99
2023-03-26T02:03:22.164Z,6.99
2023-03-26T02:03:32.623Z,6.99
2023-03-26T02:03:43.156Z,6.99
2023-03-26T02:03:53.618Z,6.99
2023-03-26T02:04:04.160Z,6.99
2023-03-26T02:04:14.633Z,6.99
2023-03-26T02:04:25.136Z,7.02
2023-03-26T02:04:35.654Z,7.03
2023-03-26T02:04:46.163Z,7.05
2023-03-26T02:04:56.654Z,7.03
2023-03-26T02:05:07.167Z,7.05
2023-03-26T02:05:17.671Z,7.05
2023-03-26T02:05:28.179Z,7.05
2023-03-26T02:05:38.674Z,7.09
2023-03-26T02:05:49.207Z,7.07
2023-03-26T02:05:59.699Z,7.10
2023-03-26T02:06:10.196Z,7.09
2023-03-26T02:06:20.703Z,7.10
2023-03-26T02:06:31.212Z,7.10
2023-03-26T02:06:41.720Z,7.13
2023-03-26T02:06:52.269Z,7.15
2023-03-26T02:07:02.747Z,7.15
2023-03-26T02:07:13.243Z,7.15
2023-03-26T02:07:23.758Z,7.15
2023-03-26T02:07:34.262Z,7.16
2023-03-26T02:07:44.800Z,7.15
2023-03-26T02:07:55.280Z,7.15
2023-03-26T02:08:05.788Z,7.16
2023-03-26T02:08:16.296Z,7.15
2023-03-26T02:08:26.801Z,7.13
2023-03-26T02:08:37.373Z,7.16
2023-03-26T02:08:47.820Z,7.15
2023-03-26T02:08:58.332Z,7.13
2023-03-26T02:09:08.868Z,7.13
2023-03-26T02:09:19.362Z,7.13
2023-03-26T02:09:29.871Z,7.12
2023-03-26T02:09:40.358Z,7.13
2023-03-26T02:09:50.871Z,7.15
2023-03-26T02:10:01.385Z,7.13
2023-03-26T02:10:11.891Z,7.12
2023-03-26T02:10:22.429Z,7.15
2023-03-26T02:10:32.896Z,7.13
2023-03-26T02:10:43.409Z,7.13
2023-03-26T02:10:53.923Z,7.13
2023-03-26T02:11:04.441Z,7.12
2023-03-26T02:11:16.489Z,7.12
2023-03-26T02:11:34.706Z,7.13
2023-03-26T02:11:36.939Z,7.13
2023-03-26T02:11:46.447Z,7.12
2023-03-26T02:11:56.966Z,7.13
2023-03-26T02:12:07.458Z,7.12
2023-03-26T02:12:17.974Z,7.15
2023-03-26T02:12:28.484Z,7.12
2023-03-26T02:12:38.998Z,7.13
2023-03-26T02:12:49.504Z,7.12
2023-03-26T02:12:59.997Z,7.13
2023-03-26T02:13:10.521Z,7.12
2023-03-26T02:13:21.010Z,7.12
2023-03-26T02:13:31.515Z,7.12
2023-03-26T02:13:42.033Z,7.12
2023-03-26T02:13:52.538Z,7.12
2023-03-26T02:14:03.033Z,7.12
2023-03-26T02:14:13.538Z,7.10
2023-03-26T02:14:24.047Z,7.09
2023-03-26T02:14:34.559Z,7.12
2023-03-26T02:14:45.083Z,7.12
2023-03-26T02:14:55.593Z,7.12
2023-03-26T02:15:06.071Z,7.12
2023-03-26T02:15:16.584Z,7.10
2023-03-26T02:15:27.141Z,7.10
2023-03-26T02:15:37.615Z,7.10
2023-03-26T02:15:48.108Z,7.09
2023-03-26T02:15:58.656Z,7.09
2023-03-26T02:16:09.175Z,7.12
2023-03-26T02:16:19.669Z,7.10
2023-03-26T02:16:30.166Z,7.12
2023-03-26T02:16:40.740Z,7.12
2023-03-26T02:16:51.146Z,7.12
2023-03-26T02:17:01.670Z,7.09
2023-03-26T02:17:12.175Z,7.10
2023-03-26T02:17:22.734Z,7.09
2023-03-26T02:17:33.214Z,7.12
2023-03-26T02:17:43.727Z,7.09
2023-03-26T02:17:54.384Z,7.10
2023-03-26T02:18:04.718Z,7.10
2023-03-26T02:18:15.199Z,7.09
2023-03-26T02:18:25.712Z,7.09
2023-03-26T02:18:36.298Z,7.10
2023-03-26T02:18:46.722Z,7.09
2023-03-26T02:18:57.233Z,7.10
2023-03-26T02:19:07.732Z,7.10
2023-03-26T02:19:18.241Z,7.09
2023-03-26T02:19:28.745Z,7.09
2023-03-26T02:19:39.254Z,7.10
2023-03-26T02:19:49.762Z,7.09